createdAt,value
2022-08-14T00:02:27.362Z,20.26
2022-08-14T00:04:56.566Z,20.23
2022-08-14T00:07:24.947Z,20.24
2022-08-14T00:10:01.771Z,20.22
2022-08-14T00:12:47.991Z,20.22
2022-08-14T00:15:20.082Z,20.22
2022-08-14T00:17:53.243Z,20.20
2022-08-14T00:20:30.474Z,20.19
2022-08-14T00:23:11.946Z,20.17
2022-08-14T00:25:53.837Z,20.16
2022-08-14T00:28:29.022Z,20.16
2022-08-14T00:31:01.139Z,20.13
2022-08-14T00:33:50.616Z,20.12
2022-08-14T00:36:35.579Z,20.12
2022-08-14T00:39:09.356Z,20.11
2022-08-14T00:41:39.473Z,20.09
2022-08-14T00:44:10.589Z,20.07
2022-08-14T00:46:39.100Z,20.08
2022-08-14T00:49:08.259Z,20.08
2022-08-14T00:51:41.111Z,20.09
2022-08-14T00:54:16.729Z,20.06
2022-08-14T00:56:54.870Z,20.05
2022-08-14T00:59:25.071Z,20.04
2022-08-14T01:01:55.524Z,20.03
2022-08-14T01:04:51.737Z,20.05
2022-08-14T01:07:14.273Z,20.06
2022-08-14T01:09:42.938Z,20.06
2022-08-14T01:12:13.468Z,20.07
2022-08-14T01:14:56.018Z,20.07
2022-08-14T01:17:49.642Z,20.06
2022-08-14T01:20:39.981Z,20.05
2022-08-14T01:23:16.797Z,20.05
2022-08-14T01:25:50.310Z,20.03
2022-08-14T01:28:46.408Z,20.01
2022-08-14T01:31:12.472Z,20.01
2022-08-14T01:35:16.074Z,20.00
2022-08-14T01:36:39.280Z,19.97
2022-08-14T01:39:12.988Z,19.96
2022-08-14T01:41:43.972Z,19.93
2022-08-14T01:44:31.949Z,19.91
2022-08-14T01:47:05.802Z,19.90
2022-08-14T01:49:35.470Z,19.89
2022-08-14T01:52:09.006Z,19.89
2022-08-14T01:54:58.416Z,19.89
2022-08-14T01:57:49.758Z,19.90
2022-08-14T02:00:16.818Z,19.90
2022-08-14T02:02:46.757Z,19.89
2022-08-14T02:05:15.763Z,19.90
2022-08-14T02:07:55.729Z,19.88
2022-08-14T02:10:29.205Z,19.86
2022-08-14T02:12:59.359Z,19.86
2022-08-14T02:15:27.690Z,19.86
2022-08-14T02:17:55.969Z,19.86
2022-08-14T02:20:24.577Z,19.84
2022-08-14T02:22:55.036Z,19.83
2022-08-14T02:25:23.819Z,19.79
2022-08-14T02:28:25.370Z,19.77
2022-08-14T02:30:45.447Z,19.76
2022-08-14T02:33:14.173Z,19.74
2022-08-14T02:35:43.639Z,19.74
2022-08-14T02:38:30.291Z,19.71
2022-08-14T02:41:08.889Z,19.63
2022-08-14T02:43:46.552Z,19.62
2022-08-14T02:46:20.769Z,19.59
2022-08-14T02:49:03.242Z,19.59
2022-08-14T02:51:36.616Z,19.59
2022-08-14T02:54:07.019Z,19.58
2022-08-14T02:57:15.452Z,19.59
2022-08-14T02:59:33.432Z,19.59
2022-08-14T03:02:02.580Z,19.59
2022-08-14T03:04:31.171Z,19.59
2022-08-14T03:07:07.336Z,19.59
2022-08-14T03:09:42.368Z,19.57
2022-08-14T03:12:32.070Z,19.57
2022-08-14T03:15:14.225Z,19.56
2022-08-14T03:17:56.572Z,19.54
2022-08-14T03:20:29.135Z,19.52
2022-08-14T03:23:03.091Z,19.50
2022-08-14T03:25:33.520Z,19.50
2022-08-14T03:28:04.207Z,19.48
2022-08-14T03:30:38.985Z,19.45
2022-08-14T03:33:10.578Z,19.45
2022-08-14T03:36:05.655Z,19.43
2022-08-14T03:39:12.518Z,19.41
2022-08-14T03:41:19.116Z,19.40
2022-08-14T03:44:01.402Z,19.40
2022-08-14T03:46:54.685Z,19.39
2022-08-14T03:49:28.789Z,19.33
2022-08-14T03:52:00.803Z,19.30
2022-08-14T03:54:30.231Z,19.29
2022-08-14T03:57:02.514Z,19.26
2022-08-14T03:59:31.493Z,19.26
2022-08-14T04:02:04.405Z,19.25
2022-08-14T04:04:33.856Z,19.26
2022-08-14T04:07:03.426Z,19.25
2022-08-14T04:09:31.647Z,19.31
2022-08-14T04:12:00.090Z,19.27
2022-08-14T04:14:30.351Z,19.28
2022-08-14T04:17:09.859Z,19.24
2022-08-14T04:19:38.869Z,19.22
2022-08-14T04:22:07.516Z,19.20
2022-08-14T04:24:38.185Z,19.19
2022-08-14T04:27:09.537Z,19.19
2022-08-14T04:29:39.435Z,19.19
2022-08-14T04:32:59.156Z,19.19
2022-08-14T04:34:58.452Z,19.18
2022-08-14T04:37:41.137Z,19.15
2022-08-14T04:40:28.854Z,19.14
2022-08-14T04:43:17.401Z,19.12
2022-08-14T04:45:51.040Z,19.13
2022-08-14T04:48:39.999Z,19.12
2022-08-14T04:51:12.021Z,19.12
2022-08-14T04:53:43.725Z,19.11
2022-08-14T04:56:31.683Z,19.08
2022-08-14T04:59:09.452Z,19.08
2022-08-14T05:01:40.558Z,19.06
2022-08-14T05:04:16.380Z,19.07
2022-08-14T05:06:49.408Z,19.07
2022-08-14T05:09:18.070Z,19.08
2022-08-14T05:11:47.471Z,19.08
2022-08-14T05:14:33.041Z,19.07
2022-08-14T05:17:03.995Z,19.08
2022-08-14T05:19:45.025Z,19.08
2022-08-14T05:22:27.034Z,19.07
2022-08-14T05:24:55.907Z,19.09
2022-08-14T05:27:24.256Z,19.10
2022-08-14T05:29:57.119Z,19.11
2022-08-14T05:32:27.140Z,19.13
2022-08-14T05:34:59.316Z,19.19
2022-08-14T05:37:29.909Z,19.20
2022-08-14T05:40:00.575Z,19.22
2022-08-14T05:42:34.053Z,19.24
2022-08-14T05:45:04.861Z,19.28
2022-08-14T05:47:39.261Z,19.30
2022-08-14T05:50:18.825Z,19.34
2022-08-14T05:52:51.108Z,19.37
2022-08-14T05:55:22.965Z,19.40
2022-08-14T05:57:57.778Z,19.45
2022-08-14T06:00:38.609Z,19.49
2022-08-14T06:03:09.716Z,19.54
2022-08-14T06:05:39.815Z,19.58
2022-08-14T06:08:31.226Z,19.63
2022-08-14T06:11:06.847Z,19.70
2022-08-14T06:13:44.768Z,19.75
2022-08-14T06:16:17.695Z,19.78
2022-08-14T06:18:48.716Z,19.83
2022-08-14T06:21:23.065Z,19.88
2022-08-14T06:23:51.730Z,19.92
2022-08-14T06:26:20.417Z,19.96
2022-08-14T06:28:52.360Z,19.98
2022-08-14T06:31:20.860Z,20.03
2022-08-14T06:35:03.055Z,20.06
2022-08-14T06:36:39.464Z,20.10
2022-08-14T06:39:10.361Z,20.16
2022-08-14T06:41:56.624Z,20.21
2022-08-14T06:44:32.775Z,20.26
2022-08-14T06:47:02.248Z,20.30
2022-08-14T06:49:30.579Z,20.34
2022-08-14T06:52:10.273Z,20.38
2022-08-14T06:54:43.674Z,20.40
2022-08-14T06:57:13.282Z,20.41
2022-08-14T06:59:42.373Z,20.40
2022-08-14T07:02:29.304Z,20.41
2022-08-14T07:05:17.029Z,20.42
2022-08-14T07:07:52.931Z,20.41
2022-08-14T07:10:24.867Z,20.38
2022-08-14T07:13:01.215Z,20.37
2022-08-14T07:15:32.530Z,20.40
2022-08-14T07:18:03.731Z,20.48
2022-08-14T07:20:36.773Z,20.62
2022-08-14T07:23:20.569Z,20.85
2022-08-14T07:25:51.385Z,21.13
2022-08-14T07:28:24.567Z,21.32
2022-08-14T07:30:56.376Z,21.50
2022-08-14T07:33:29.349Z,21.64
2022-08-14T07:36:00.960Z,21.72
2022-08-14T07:38:35.884Z,21.80
2022-08-14T07:41:14.672Z,21.80
2022-08-14T07:43:53.059Z,21.76
2022-08-14T07:46:29.346Z,21.80
2022-08-14T07:48:59.249Z,21.81
2022-08-14T07:51:34.331Z,21.84
2022-08-14T07:54:11.324Z,21.91
2022-08-14T07:56:47.338Z,21.96
2022-08-14T07:59:18.455Z,21.99
2022-08-14T08:01:48.078Z,21.98
2022-08-14T08:04:25.286Z,22.00
2022-08-14T08:06:56.108Z,22.00
2022-08-14T08:09:29.847Z,22.07
2022-08-14T08:12:04.998Z,22.10
2022-08-14T08:14:56.730Z,22.18
2022-08-14T08:17:34.782Z,22.22
2022-08-14T08:20:11.566Z,22.25
2022-08-14T08:22:40.938Z,22.25
2022-08-14T08:25:14.142Z,22.26
2022-08-14T08:27:56.402Z,22.28
2022-08-14T08:30:24.860Z,22.29
2022-08-14T08:32:55.067Z,22.29
2022-08-14T08:35:25.808Z,22.32
2022-08-14T08:39:18.585Z,22.34
2022-08-14T08:41:10.947Z,22.37
2022-08-14T08:43:46.182Z,22.40
2022-08-14T08:46:23.737Z,22.48
2022-08-14T08:51:25.287Z,22.58
2022-08-14T08:54:01.631Z,22.60
2022-08-14T08:56:39.825Z,22.61
2022-08-14T08:59:31.041Z,22.68
2022-08-14T09:02:01.336Z,22.75
2022-08-14T09:04:37.433Z,22.75
2022-08-14T09:07:14.585Z,22.74
2022-08-14T09:09:56.904Z,22.69
2022-08-14T09:12:32.222Z,22.64
2022-08-14T09:15:02.978Z,22.62
2022-08-14T09:17:33.517Z,22.62
2022-08-14T09:20:04.047Z,22.66
2022-08-14T09:22:35.794Z,22.62
2022-08-14T09:25:07.623Z,22.59
2022-08-14T09:27:39.682Z,22.56
2022-08-14T09:30:31.633Z,22.55
2022-08-14T09:33:13.166Z,22.53
2022-08-14T09:35:56.690Z,22.57
2022-08-14T09:38:34.684Z,22.56
2022-08-14T09:41:12.061Z,22.55
2022-08-14T09:43:51.116Z,22.52
2022-08-14T09:46:21.177Z,22.54
2022-08-14T09:48:59.837Z,22.49
2022-08-14T09:51:33.178Z,22.51
2022-08-14T09:54:22.761Z,22.50
2022-08-14T09:56:57.112Z,22.51
2022-08-14T09:59:33.622Z,22.49
2022-08-14T10:02:07.253Z,22.51
2022-08-14T10:04:42.274Z,22.49
2022-08-14T10:07:14.362Z,22.49
2022-08-14T10:09:59.883Z,22.48
2022-08-14T10:12:52.968Z,22.50
2022-08-14T10:15:29.766Z,22.51
2022-08-14T10:18:13.289Z,22.51
2022-08-14T10:20:53.264Z,22.59
2022-08-14T10:23:23.553Z,22.73
2022-08-14T10:25:54.667Z,22.91
2022-08-14T10:29:03.831Z,23.09
2022-08-14T10:31:25.716Z,23.21
2022-08-14T10:34:12.760Z,23.33
2022-08-14T10:36:47.511Z,23.43
2022-08-14T10:39:19.412Z,23.55
2022-08-14T10:41:54.049Z,23.67
2022-08-14T10:44:29.682Z,23.75
2022-08-14T10:47:40.378Z,23.81
2022-08-14T10:49:59.802Z,23.86
2022-08-14T10:52:34.628Z,23.89
2022-08-14T10:55:14.141Z,23.96
2022-08-14T10:57:51.302Z,24.07
2022-08-14T11:00:30.346Z,24.15
2022-08-14T11:03:09.814Z,24.16
2022-08-14T11:05:44.710Z,24.21
2022-08-14T11:08:15.876Z,24.26
2022-08-14T11:10:47.695Z,24.36
2022-08-14T11:13:18.980Z,24.48
2022-08-14T11:15:49.340Z,24.62
2022-08-14T11:18:30.027Z,24.68
2022-08-14T11:21:00.561Z,24.74
2022-08-14T11:23:37.837Z,24.84
2022-08-14T11:26:08.281Z,24.92
2022-08-14T11:28:46.882Z,25.00
2022-08-14T11:31:19.600Z,25.08
2022-08-14T11:33:51.374Z,25.19
2022-08-14T11:36:24.526Z,25.28
2022-08-14T11:39:23.192Z,25.36
2022-08-14T11:42:55.259Z,25.41
2022-08-14T11:44:56.688Z,25.47
2022-08-14T11:47:35.315Z,25.52
2022-08-14T11:50:34.095Z,25.52
2022-08-14T11:53:07.836Z,25.47
2022-08-14T11:55:39.720Z,25.45
2022-08-14T11:58:10.495Z,25.36
2022-08-14T12:00:48.477Z,25.27
2022-08-14T12:03:27.281Z,25.21
2022-08-14T12:06:27.899Z,25.13
2022-08-14T12:09:00.128Z,25.06
2022-08-14T12:11:44.266Z,24.92
2022-08-14T12:14:29.954Z,24.54
2022-08-14T12:17:04.277Z,24.47
2022-08-14T12:19:33.733Z,24.36
2022-08-14T12:22:06.881Z,24.27
2022-08-14T12:24:36.478Z,24.19
2022-08-14T12:27:08.469Z,24.08
2022-08-14T12:29:37.773Z,24.11
2022-08-14T12:32:09.134Z,24.13
2022-08-14T12:34:44.919Z,24.14
2022-08-14T12:37:14.928Z,24.09
2022-08-14T12:39:43.087Z,24.10
2022-08-14T12:42:34.287Z,24.13
2022-08-14T12:45:00.095Z,24.14
2022-08-14T12:47:32.505Z,24.12
2022-08-14T12:50:01.530Z,24.11
2022-08-14T12:52:44.592Z,24.13
2022-08-14T12:55:22.860Z,24.16
2022-08-14T12:58:28.632Z,24.12
2022-08-14T13:01:16.318Z,24.09
2022-08-14T13:03:42.706Z,24.23
2022-08-14T13:06:14.182Z,24.36
2022-08-14T13:08:53.336Z,24.36
2022-08-14T13:11:25.747Z,24.42
2022-08-14T13:13:59.305Z,24.51
2022-08-14T13:16:37.821Z,24.54
2022-08-14T13:19:10.942Z,24.55
2022-08-14T13:22:05.123Z,24.52
2022-08-14T13:24:33.359Z,24.38
2022-08-14T13:27:04.986Z,24.40
2022-08-14T13:29:43.798Z,24.39
2022-08-14T13:32:16.436Z,24.26
2022-08-14T13:34:48.622Z,24.11
2022-08-14T13:37:17.715Z,23.94
2022-08-14T13:39:56.590Z,23.96
2022-08-14T13:42:30.640Z,23.89
2022-08-14T13:45:01.300Z,23.89
2022-08-14T13:47:33.169Z,23.86
2022-08-14T13:50:05.647Z,23.98
2022-08-14T13:52:51.499Z,24.10
2022-08-14T13:55:25.501Z,24.23
2022-08-14T13:58:03.192Z,24.36
2022-08-14T14:00:36.023Z,24.48
2022-08-14T14:03:22.074Z,24.63
2022-08-14T14:05:54.891Z,24.78
2022-08-14T14:08:47.025Z,24.72
2022-08-14T14:11:15.927Z,24.61
2022-08-14T14:13:46.342Z,24.54
2022-08-14T14:16:26.475Z,24.45
2022-08-14T14:19:09.018Z,24.35
2022-08-14T14:21:40.745Z,24.20
2022-08-14T14:24:14.753Z,24.21
2022-08-14T14:26:47.325Z,24.13
2022-08-14T14:29:16.888Z,24.05
2022-08-14T14:31:49.417Z,24.03
2022-08-14T14:34:29.207Z,24.03
2022-08-14T14:37:04.880Z,23.99
2022-08-14T14:39:37.649Z,23.90
2022-08-14T14:42:32.201Z,23.94
2022-08-14T14:45:06.287Z,24.08
2022-08-14T14:47:35.465Z,24.08
2022-08-14T14:50:05.213Z,24.05
2022-08-14T14:52:38.854Z,23.98
2022-08-14T14:55:16.996Z,23.94
2022-08-14T14:57:52.026Z,23.92
2022-08-14T15:00:23.700Z,23.87
2022-08-14T15:02:57.747Z,23.76
2022-08-14T15:05:28.562Z,23.70
2022-08-14T15:07:57.844Z,23.65
2022-08-14T15:10:34.274Z,23.56
2022-08-14T15:13:07.268Z,23.51
2022-08-14T15:15:37.520Z,23.49
2022-08-14T15:18:35.893Z,23.48
2022-08-14T15:20:56.776Z,23.47
2022-08-14T15:23:25.417Z,23.49
2022-08-14T15:26:13.493Z,23.51
2022-08-14T15:29:03.009Z,23.41
2022-08-14T15:31:34.763Z,23.33
2022-08-14T15:34:45.064Z,23.24
2022-08-14T15:37:04.543Z,23.14
2022-08-14T15:39:34.073Z,23.11
2022-08-14T15:42:14.390Z,23.05
2022-08-14T15:44:58.283Z,23.12
2022-08-14T15:47:30.271Z,23.16
2022-08-14T15:50:01.267Z,23.25
2022-08-14T15:52:35.185Z,23.28
2022-08-14T15:55:06.205Z,23.33
2022-08-14T15:57:34.927Z,23.31
2022-08-14T16:00:43.449Z,23.33
2022-08-14T16:03:16.539Z,23.34
2022-08-14T16:05:45.789Z,23.32
2022-08-14T16:08:28.731Z,23.29
2022-08-14T16:10:58.890Z,23.29
2022-08-14T16:13:41.444Z,23.25
2022-08-14T16:16:47.516Z,23.22
2022-08-14T16:19:10.131Z,23.16
2022-08-14T16:22:02.666Z,23.17
2022-08-14T16:24:33.507Z,23.21
2022-08-14T16:27:03.340Z,23.29
2022-08-14T16:29:36.430Z,23.34
2022-08-14T16:32:33.580Z,23.25
2022-08-14T16:34:58.160Z,23.21
2022-08-14T16:37:30.631Z,23.29
2022-08-14T16:40:02.769Z,23.29
2022-08-14T16:42:39.044Z,23.32
2022-08-14T16:45:26.082Z,23.31
2022-08-14T16:47:57.571Z,23.31
2022-08-14T16:50:40.606Z,23.32
2022-08-14T16:53:17.167Z,23.29
2022-08-14T16:55:51.431Z,23.28
2022-08-14T16:58:27.159Z,23.30
2022-08-14T17:01:16.515Z,23.30
2022-08-14T17:04:01.475Z,23.38
2022-08-14T17:06:50.214Z,23.38
2022-08-14T17:09:28.085Z,23.42
2022-08-14T17:12:07.514Z,23.43
2022-08-14T17:15:03.854Z,23.42
2022-08-14T17:17:58.402Z,23.43
2022-08-14T17:20:54.725Z,23.40
2022-08-14T17:23:20.170Z,23.38
2022-08-14T17:25:49.411Z,23.32
2022-08-14T17:28:52.335Z,23.26
2022-08-14T17:31:09.362Z,23.23
2022-08-14T17:33:44.221Z,23.16
2022-08-14T17:36:24.131Z,23.10
2022-08-14T17:39:06.403Z,23.07
2022-08-14T17:41:43.672Z,23.00
2022-08-14T17:44:20.244Z,22.91
2022-08-14T17:46:57.152Z,22.91
2022-08-14T17:49:28.174Z,22.87
2022-08-14T17:52:07.686Z,22.87
2022-08-14T17:54:52.861Z,22.84
2022-08-14T17:57:28.576Z,22.81
2022-08-14T17:59:59.070Z,22.81
2022-08-14T18:02:30.943Z,22.78
2022-08-14T18:05:03.071Z,22.73
2022-08-14T18:07:59.800Z,22.66
2022-08-14T18:10:52.586Z,22.60
2022-08-14T18:13:13.284Z,22.54
2022-08-14T18:15:51.107Z,22.56
2022-08-14T18:18:19.595Z,22.54
2022-08-14T18:21:41.814Z,22.51
2022-08-14T18:23:44.184Z,22.41
2022-08-14T18:26:36.231Z,22.36
2022-08-14T18:29:03.375Z,22.34
2022-08-14T18:31:45.268Z,22.28
2022-08-14T18:34:31.862Z,22.24
2022-08-14T18:37:14.240Z,22.20
2022-08-14T18:40:02.083Z,22.20
2022-08-14T18:42:46.384Z,22.14
2022-08-14T18:45:19.079Z,22.08
2022-08-14T18:48:50.204Z,22.01
2022-08-14T18:51:45.278Z,21.98
2022-08-14T18:54:30.002Z,21.94
2022-08-14T18:57:05.246Z,21.91
2022-08-14T18:59:36.556Z,21.89
2022-08-14T19:02:42.991Z,21.86
2022-08-14T19:05:12.358Z,21.86
2022-08-14T19:07:40.957Z,21.86
2022-08-14T19:10:17.059Z,21.84
2022-08-14T19:13:12.175Z,21.80
2022-08-14T19:15:44.000Z,21.77
2022-08-14T19:18:27.894Z,21.74
2022-08-14T19:20:58.588Z,21.76
2022-08-14T19:23:43.186Z,21.77
2022-08-14T19:26:34.694Z,21.75
2022-08-14T19:29:38.265Z,21.74
2022-08-14T19:32:39.655Z,21.75
2022-08-14T19:35:48.855Z,21.70
2022-08-14T19:38:48.032Z,21.65
2022-08-14T19:41:17.751Z,21.63
2022-08-14T19:43:55.505Z,21.61
2022-08-14T19:46:39.328Z,21.61
2022-08-14T19:49:22.961Z,21.58
2022-08-14T19:51:51.877Z,21.57
2022-08-14T19:54:20.170Z,21.57
2022-08-14T19:56:48.561Z,21.56
2022-08-14T19:59:20.321Z,21.55
2022-08-14T20:01:53.902Z,21.55
2022-08-14T20:04:45.841Z,21.55
2022-08-14T20:07:59.912Z,21.52
2022-08-14T20:11:07.842Z,21.53
2022-08-14T20:13:24.474Z,21.53
2022-08-14T20:15:57.849Z,21.53
2022-08-14T20:18:51.018Z,21.53
2022-08-14T20:21:18.523Z,21.51
2022-08-14T20:23:48.054Z,21.52
2022-08-14T20:26:30.874Z,21.53
2022-08-14T20:29:05.028Z,21.55
2022-08-14T20:31:37.471Z,21.56
2022-08-14T20:34:15.960Z,21.56
2022-08-14T20:37:04.228Z,21.55
2022-08-14T20:39:36.132Z,21.55
2022-08-14T20:42:25.923Z,21.55
2022-08-14T20:45:17.504Z,21.55
2022-08-14T20:47:53.738Z,21.56
2022-08-14T20:50:28.249Z,21.55
2022-08-14T20:52:58.350Z,21.55
2022-08-14T20:55:30.337Z,21.54
2022-08-14T20:58:02.574Z,21.52
2022-08-14T21:00:52.259Z,21.54
2022-08-14T21:03:30.327Z,21.53
2022-08-14T21:06:01.693Z,21.50
2022-08-14T21:08:51.882Z,21.52
2022-08-14T21:11:23.593Z,21.50
2022-08-14T21:14:20.622Z,21.50
2022-08-14T21:16:56.771Z,21.50
2022-08-14T21:19:29.296Z,21.47
2022-08-14T21:22:00.174Z,21.49
2022-08-14T21:24:39.515Z,21.48
2022-08-14T21:27:21.811Z,21.43
2022-08-14T21:29:55.983Z,21.42
2022-08-14T21:32:47.064Z,21.39
2022-08-14T21:35:22.877Z,21.35
2022-08-14T21:37:52.589Z,21.33
2022-08-14T21:40:42.029Z,21.36
2022-08-14T21:43:17.672Z,21.36
2022-08-14T21:45:51.873Z,21.36
2022-08-14T21:48:25.430Z,21.36
2022-08-14T21:51:02.184Z,21.37
2022-08-14T21:53:58.068Z,21.37
2022-08-14T21:56:38.215Z,21.36
2022-08-14T21:59:11.245Z,21.36
2022-08-14T22:02:00.883Z,21.34
2022-08-14T22:04:39.899Z,21.34
2022-08-14T22:07:12.699Z,21.35
2022-08-14T22:09:45.525Z,21.36
2022-08-14T22:12:58.127Z,21.37
2022-08-14T22:15:16.577Z,21.37
2022-08-14T22:17:45.431Z,21.37
2022-08-14T22:20:22.948Z,21.38
2022-08-14T22:22:56.033Z,21.38
2022-08-14T22:25:33.386Z,21.38
2022-08-14T22:28:04.391Z,21.38
2022-08-14T22:30:33.123Z,21.35
2022-08-14T22:33:01.439Z,21.36
2022-08-14T22:35:31.115Z,21.36
2022-08-14T22:38:36.309Z,21.35
2022-08-14T22:41:24.963Z,21.36
2022-08-14T22:43:39.879Z,21.35
2022-08-14T22:46:14.501Z,21.35
2022-08-14T22:48:45.442Z,21.33
2022-08-14T22:51:15.039Z,21.35
2022-08-14T22:53:46.329Z,21.35
2022-08-14T22:56:20.454Z,21.34
2022-08-14T22:58:53.651Z,21.35
2022-08-14T23:01:55.198Z,21.35
2022-08-14T23:04:35.156Z,21.34
2022-08-14T23:07:21.997Z,21.35
2022-08-14T23:09:56.275Z,21.35
2022-08-14T23:12:29.540Z,21.36
2022-08-14T23:15:00.507Z,21.34
2022-08-14T23:17:39.031Z,21.31
2022-08-14T23:20:19.361Z,21.33
2022-08-14T23:22:51.574Z,21.29
2022-08-14T23:25:44.573Z,21.31
2022-08-14T23:28:33.548Z,21.28
2022-08-14T23:31:02.395Z,21.24
2022-08-14T23:33:35.394Z,21.22
2022-08-14T23:36:32.270Z,21.21
2022-08-14T23:38:54.269Z,21.18
2022-08-14T23:41:23.895Z,21.18
2022-08-14T23:43:57.114Z,21.15
2022-08-14T23:46:34.725Z,21.11
2022-08-14T23:49:04.229Z,21.15
2022-08-14T23:51:36.665Z,21.13
2022-08-14T23:54:48.741Z,21.13
2022-08-14T23:57:02.730Z,21.13
2022-08-14T23:59:32.352Z,21.11
